Pagrindinis puslapis
METAR-TAF:

METAR-TAF

Oro uostai :

Dalhart Municipal Airport

Dalhart, Teksasas, Jungtinės Amerikos Valstijos

platuma: 36-01-24N, ilguma: 102-32-50W, Aukštis: 1216 m

Dabartinis oras

Ataskaita buvo paskelbta 27 minutes, ne 03:53 UTC
Vėjas 6 kt iš Pietryčių
Temperatūra 18°C
Drėgmė 68%
Slėgis 1022 hPa
Matomumas: 16.1 km
Giedras dangus

METAR: KDHT 220353Z AUTO 13006KT 10SM CLR 18/12 A3018 RMK AO2 SLP178 T01780117

Laikas: 23:20 (04:20 UTC)

Prognozė

Ataskaita buvo paskelbta 4 valandos ir 57 minutes, ne 23:23 UTC
Prognozė galioja nuo 22 metu 00 UTC su 22 metu 24 UTC
Vėjas 10 kt iš Rytų/Šiaurės Rytų
Matomumas: 10 km
Mažai debesys ne aukštis 25000 ft
Nuo 22 metu 0100 UTC
Vėjas 9 kt iš Rytų
Matomumas: 10 km
Mažai debesys ne aukštis 25000 ft
Nuo 22 metu 1500 UTC
Vėjas 20 kt iš Pietų/Pietvakarių su gūsio iki 28 kt
Matomumas: 10 km
Mažai debesys ne aukštis 25000 ft

TAF: KDHT 212323Z 2200/2224 06010KT P6SM FEW250 FM220100 09009KT P6SM FEW250 FM221500 21020G28KT P6SM FEW250

Orai ataskaitas ir orų prognozės (METAR, TAF).

turimą stotys yra geltonos ir raudonos taškus žemėlapyje.

Perkelti pele per norėdami pamatyti stoties vardą.

Tada spustelėkite, norėdami matyti oro stebėjimo ir prognozės.

Norėdami pakeisti žemėlapį: spustelėkite ant žalios mygtukų su juodo kryžiaus žemyn,; žalią mygtuką su brūkšneliu, jei norite nutolinti; arba žalių rodyklių gretimoms žemėlapius.


METAR-TAF: